createdAt,value
2018-12-23T00:01:48.298Z,24.43
2018-12-23T00:06:27.488Z,21.68
2018-12-23T00:11:06.239Z,19.65
2018-12-23T00:15:44.983Z,23.73
2018-12-23T00:20:23.785Z,20.00
2018-12-23T00:25:02.726Z,27.32
2018-12-23T00:29:42.527Z,23.87
2018-12-23T00:34:21.192Z,26.85
2018-12-23T00:38:59.972Z,26.57
2018-12-23T00:43:39.017Z,27.32
2018-12-23T00:48:18.069Z,30.52
2018-12-23T00:52:57.017Z,30.75
2018-12-23T00:57:36.065Z,25.68
2018-12-23T01:02:16.052Z,24.97
2018-12-23T01:06:54.979Z,29.20
2018-12-23T01:11:33.825Z,26.62
2018-12-23T01:16:12.672Z,23.98
2018-12-23T01:20:51.615Z,30.35
2018-12-23T01:25:30.465Z,29.00
2018-12-23T01:30:09.813Z,39.40
2018-12-23T01:34:48.762Z,34.53
2018-12-23T01:39:28.102Z,28.30
2018-12-23T01:44:06.911Z,25.92
2018-12-23T01:48:45.673Z,26.77
2018-12-23T01:53:24.577Z,21.07
2018-12-23T01:58:03.418Z,19.07
2018-12-23T02:02:42.209Z,19.62
2018-12-23T02:07:21.106Z,18.50
2018-12-23T02:12:00.204Z,23.40
2018-12-23T02:16:39.673Z,18.52
2018-12-23T02:21:18.572Z,17.55
2018-12-23T02:25:57.819Z,20.32
2018-12-23T02:30:36.721Z,19.52
2018-12-23T02:35:15.518Z,20.00
2018-12-23T02:39:54.256Z,22.67
2018-12-23T02:44:32.980Z,25.00
2018-12-23T02:49:11.825Z,25.57
2018-12-23T02:53:50.756Z,26.75
2018-12-23T02:58:29.458Z,19.83
2018-12-23T03:03:08.144Z,26.07
2018-12-23T03:07:46.881Z,25.73
2018-12-23T03:12:25.692Z,17.85
2018-12-23T03:17:04.324Z,22.00
2018-12-23T03:21:43.181Z,15.72
2018-12-23T03:26:22.134Z,25.97
2018-12-23T03:31:00.883Z,28.25
2018-12-23T03:35:39.629Z,20.43
2018-12-23T03:40:18.243Z,14.55
2018-12-23T03:44:57.149Z,20.15
2018-12-23T03:49:36.236Z,14.23
2018-12-23T03:54:15.428Z,18.17
2018-12-23T03:58:54.551Z,20.10
2018-12-23T04:03:33.443Z,24.27
2018-12-23T04:08:12.321Z,26.62
2018-12-23T04:12:51.096Z,21.27
2018-12-23T04:17:30.052Z,19.65
2018-12-23T04:22:08.829Z,27.23
2018-12-23T04:26:47.574Z,23.87
2018-12-23T04:31:26.205Z,20.10
2018-12-23T04:36:05.004Z,25.27
2018-12-23T04:40:44.170Z,29.83
2018-12-23T04:45:23.008Z,25.10
2018-12-23T04:50:01.773Z,29.20
2018-12-23T04:54:40.566Z,25.57
2018-12-23T04:59:19.232Z,25.72
2018-12-23T05:03:58.039Z,22.40
2018-12-23T05:08:37.186Z,22.10
2018-12-23T05:13:16.074Z,28.20
2018-12-23T05:17:54.801Z,24.57
2018-12-23T05:22:33.619Z,28.50
2018-12-23T05:27:12.531Z,23.50
2018-12-23T05:31:51.216Z,32.73
2018-12-23T05:36:30.151Z,23.77
2018-12-23T05:41:08.904Z,17.03
2018-12-23T05:45:47.826Z,26.60
2018-12-23T05:50:26.582Z,24.87
2018-12-23T05:55:05.399Z,23.57
2018-12-23T05:59:44.192Z,24.33
2018-12-23T06:04:23.073Z,23.77
2018-12-23T06:09:02.759Z,24.03
2018-12-23T06:13:41.743Z,25.00
2018-12-23T06:18:20.628Z,28.33
2018-12-23T06:22:59.518Z,19.63
2018-12-23T06:27:38.256Z,22.13
2018-12-23T06:32:16.967Z,22.42
2018-12-23T06:36:57.635Z,21.77
2018-12-23T06:41:36.611Z,20.97
2018-12-23T06:46:15.423Z,26.17
2018-12-23T06:50:54.085Z,28.67
2018-12-23T06:55:32.872Z,26.90
2018-12-23T07:00:12.495Z,48.27
2018-12-23T07:04:51.379Z,33.40
2018-12-23T07:09:30.295Z,37.55
2018-12-23T07:14:09.116Z,37.10
2018-12-23T07:18:47.788Z,32.90
2018-12-23T07:23:26.776Z,35.03
2018-12-23T07:28:05.564Z,34.98
2018-12-23T07:32:44.388Z,33.50
2018-12-23T07:37:27.530Z,33.33
2018-12-23T07:42:03.951Z,35.48
2018-12-23T07:46:42.791Z,31.33
2018-12-23T07:51:21.583Z,28.95
2018-12-23T07:56:00.517Z,28.27
2018-12-23T08:00:39.211Z,28.55
2018-12-23T08:05:18.045Z,26.97
2018-12-23T08:09:56.957Z,24.95
2018-12-23T08:14:35.868Z,30.00
2018-12-23T08:19:15.157Z,22.82
2018-12-23T08:23:53.898Z,23.30
2018-12-23T08:28:32.604Z,21.70
2018-12-23T08:33:11.339Z,30.70
2018-12-23T08:37:50.205Z,33.88
2018-12-23T08:42:29.008Z,31.23
2018-12-23T08:47:07.763Z,27.32
2018-12-23T08:51:46.756Z,30.55
2018-12-23T08:56:26.342Z,29.60
2018-12-23T09:01:05.036Z,27.48
2018-12-23T09:05:43.845Z,29.82
2018-12-23T09:10:22.686Z,40.35
2018-12-23T09:15:01.537Z,28.35
2018-12-23T09:19:40.433Z,22.62
2018-12-23T09:24:19.397Z,25.72
2018-12-23T09:28:58.195Z,21.50
2018-12-23T09:33:37.125Z,27.02
2018-12-23T09:38:16.104Z,27.05
2018-12-23T09:42:54.892Z,22.37
2018-12-23T09:47:33.744Z,22.32
2018-12-23T09:52:12.407Z,25.97
2018-12-23T09:56:53.055Z,23.45
2018-12-23T10:01:31.979Z,18.37
2018-12-23T10:06:10.789Z,21.50
2018-12-23T10:10:49.439Z,21.40
2018-12-23T10:15:28.356Z,28.10
2018-12-23T10:20:08.571Z,21.20
2018-12-23T10:24:47.233Z,23.70
2018-12-23T10:29:25.961Z,20.55
2018-12-23T10:34:04.808Z,23.90
2018-12-23T10:38:43.673Z,29.60
2018-12-23T10:43:22.395Z,20.48
2018-12-23T10:48:01.160Z,31.02
2018-12-23T10:52:39.905Z,23.77
2018-12-23T10:57:18.818Z,26.95
2018-12-23T11:01:57.575Z,26.73
2018-12-23T11:06:36.579Z,21.15
2018-12-23T11:11:15.388Z,18.20
2018-12-23T11:15:54.421Z,21.93
2018-12-23T11:20:33.264Z,24.25
2018-12-23T11:25:12.129Z,20.82
2018-12-23T11:29:50.852Z,18.20
2018-12-23T11:34:29.775Z,21.40
2018-12-23T11:39:08.548Z,18.35
2018-12-23T11:43:47.584Z,21.85
2018-12-23T11:48:26.271Z,22.85
2018-12-23T11:53:05.214Z,20.30
2018-12-23T11:57:44.116Z,17.35
2018-12-23T12:02:22.840Z,15.93
2018-12-23T12:07:01.549Z,14.43
2018-12-23T12:11:40.382Z,13.72
2018-12-23T12:16:19.281Z,18.00
2018-12-23T12:20:57.924Z,17.05
2018-12-23T12:25:36.886Z,20.17
2018-12-23T12:30:15.699Z,13.72
2018-12-23T12:34:54.563Z,15.40
2018-12-23T12:39:33.592Z,17.00
2018-12-23T12:45:04.726Z,15.20
2018-12-23T12:50:10.441Z,14.75
2018-12-23T12:55:16.801Z,13.38
2018-12-23T13:00:23.678Z,11.73
2018-12-23T13:05:29.490Z,13.65
2018-12-23T13:10:35.093Z,11.90
2018-12-23T13:15:40.622Z,13.30
2018-12-23T13:20:48.701Z,11.78
2018-12-23T13:25:54.665Z,8.85
2018-12-23T13:31:01.054Z,9.50
2018-12-23T13:36:06.921Z,15.28
2018-12-23T13:41:12.806Z,9.00
2018-12-23T13:46:19.237Z,7.78
2018-12-23T13:51:25.673Z,5.90
2018-12-23T13:56:34.374Z,7.95
2018-12-23T14:02:06.768Z,9.03
2018-12-23T14:07:39.175Z,11.97
2018-12-23T14:12:44.848Z,25.80
2018-12-23T14:17:50.986Z,6.08
2018-12-23T14:22:56.993Z,6.65
2018-12-23T14:28:02.933Z,4.53
2018-12-23T14:33:08.693Z,9.38
2018-12-23T14:38:15.086Z,3.80
2018-12-23T14:43:21.474Z,8.00
2018-12-23T14:48:27.345Z,5.92
2018-12-23T14:53:32.945Z,3.83
2018-12-23T14:58:38.998Z,6.95
2018-12-23T15:03:44.898Z,3.35
2018-12-23T15:08:50.705Z,6.42
2018-12-23T15:13:57.051Z,4.50
2018-12-23T15:19:02.833Z,1.92
2018-12-23T15:24:09.338Z,2.12
2018-12-23T15:29:15.665Z,1.57
2018-12-23T15:34:21.579Z,2.60
2018-12-23T15:39:27.216Z,2.15
2018-12-23T15:44:35.278Z,2.00
2018-12-23T15:49:41.750Z,1.95
2018-12-23T15:54:48.167Z,2.58
2018-12-23T15:59:53.799Z,2.83
2018-12-23T16:04:59.437Z,1.77
2018-12-23T16:10:05.473Z,4.00
2018-12-23T16:15:11.444Z,4.25
2018-12-23T16:20:17.517Z,8.93
2018-12-23T16:25:24.057Z,4.42
2018-12-23T16:30:29.736Z,9.15
2018-12-23T16:35:36.013Z,3.65
2018-12-23T16:40:42.033Z,7.83
2018-12-23T16:45:48.526Z,3.72
2018-12-23T16:50:54.617Z,2.60
2018-12-23T16:56:00.369Z,3.45
2018-12-23T17:01:06.403Z,3.27
2018-12-23T17:06:14.282Z,3.95
2018-12-23T17:11:20.658Z,5.37
2018-12-23T17:16:26.733Z,4.30
2018-12-23T17:21:35.654Z,4.08
2018-12-23T17:26:43.058Z,4.37
2018-12-23T17:31:50.501Z,4.03
2018-12-23T17:36:58.296Z,2.55
2018-12-23T17:42:04.014Z,2.58
2018-12-23T17:47:10.441Z,2.50
2018-12-23T17:52:23.127Z,5.10
2018-12-23T17:57:24.318Z,3.20
2018-12-23T18:02:30.799Z,3.08
2018-12-23T18:07:37.138Z,2.90
2018-12-23T18:12:42.814Z,2.17
2018-12-23T18:17:48.404Z,3.40
2018-12-23T18:22:54.548Z,3.25
2018-12-23T18:28:00.577Z,2.80
2018-12-23T18:33:06.977Z,3.10
2018-12-23T18:38:13.474Z,4.80
2018-12-23T18:43:19.126Z,2.17
2018-12-23T18:48:25.546Z,2.20
2018-12-23T18:53:31.941Z,2.40
2018-12-23T18:58:37.500Z,2.40
2018-12-23T19:03:43.502Z,3.20
2018-12-23T19:08:49.901Z,2.02
2018-12-23T19:13:56.406Z,4.67
2018-12-23T19:19:02.447Z,2.62
2018-12-23T19:24:08.805Z,2.08
2018-12-23T19:29:15.164Z,3.20
2018-12-23T19:34:21.487Z,2.02
2018-12-23T19:39:27.779Z,3.25
2018-12-23T19:44:33.965Z,3.12
2018-12-23T19:49:40.126Z,4.95
2018-12-23T19:54:46.488Z,3.62
2018-12-23T19:59:53.704Z,3.12
2018-12-23T20:05:00.094Z,5.50
2018-12-23T20:10:06.601Z,6.70
2018-12-23T20:15:12.168Z,4.50
2018-12-23T20:20:17.862Z,6.12
2018-12-23T20:25:23.608Z,4.50
2018-12-23T20:30:30.111Z,5.80
2018-12-23T20:35:46.904Z,2.60
2018-12-23T20:41:15.208Z,5.33
2018-12-23T20:46:25.402Z,3.70
2018-12-23T20:51:29.453Z,1.82
2018-12-23T20:56:42.678Z,2.20
2018-12-23T21:02:15.063Z,2.47
2018-12-23T21:07:47.462Z,5.17
2018-12-23T21:12:53.569Z,4.90
2018-12-23T21:17:59.712Z,1.57
2018-12-23T21:23:06.064Z,10.58
2018-12-23T21:28:12.490Z,2.22
2018-12-23T21:33:18.381Z,1.70
2018-12-23T21:38:24.521Z,2.15
2018-12-23T21:43:30.193Z,4.58
2018-12-23T21:48:36.293Z,3.72
2018-12-23T21:53:42.585Z,2.75
2018-12-23T21:58:48.436Z,4.65
2018-12-23T22:03:54.079Z,2.35
2018-12-23T22:08:59.930Z,7.17
2018-12-23T22:14:05.983Z,4.55
2018-12-23T22:19:12.178Z,2.90
2018-12-23T22:24:18.628Z,2.52
2018-12-23T22:29:24.789Z,2.55
2018-12-23T22:34:30.791Z,4.30
2018-12-23T22:39:36.907Z,2.20
2018-12-23T22:44:42.440Z,1.98
2018-12-23T22:49:51.319Z,2.30
2018-12-23T22:54:58.943Z,2.60
2018-12-23T23:00:06.418Z,2.83
2018-12-23T23:05:13.025Z,2.42
2018-12-23T23:10:21.026Z,3.67
2018-12-23T23:15:28.938Z,2.00
2018-12-23T23:20:36.872Z,2.47
2018-12-23T23:25:44.076Z,2.10
2018-12-23T23:30:51.950Z,2.75
2018-12-23T23:35:58.837Z,1.82
2018-12-23T23:41:06.167Z,4.08
2018-12-23T23:46:11.918Z,2.60
2018-12-23T23:51:17.607Z,2.55
2018-12-23T23:56:23.616Z,2.08
